createdAt,value
2018-09-23T00:01:17.874Z,6.60
2018-09-23T00:03:45.387Z,5.50
2018-09-23T00:06:12.882Z,5.47
2018-09-23T00:08:40.736Z,4.43
2018-09-23T00:11:08.575Z,8.50
2018-09-23T00:13:36.087Z,4.93
2018-09-23T00:16:04.194Z,6.43
2018-09-23T00:18:31.703Z,4.23
2018-09-23T00:20:59.213Z,7.80
2018-09-23T00:23:26.751Z,5.70
2018-09-23T00:25:54.378Z,3.93
2018-09-23T00:28:22.537Z,4.00
2018-09-23T00:30:51.205Z,4.70
2018-09-23T00:33:18.711Z,4.33
2018-09-23T00:35:46.218Z,2.53
2018-09-23T00:38:13.776Z,3.57
2018-09-23T00:40:41.290Z,3.60
2018-09-23T00:43:09.176Z,9.13
2018-09-23T00:45:36.755Z,5.90
2018-09-23T00:48:05.408Z,3.00
2018-09-23T00:50:32.914Z,5.23
2018-09-23T00:53:02.387Z,2.57
2018-09-23T00:55:29.898Z,3.00
2018-09-23T00:57:57.428Z,3.10
2018-09-23T01:00:25.403Z,1.90
2018-09-23T01:02:53.571Z,2.00
2018-09-23T01:05:21.077Z,2.73
2018-09-23T01:07:49.011Z,2.83
2018-09-23T01:10:16.648Z,5.60
2018-09-23T01:12:44.723Z,3.50
2018-09-23T01:15:13.448Z,3.87
2018-09-23T01:17:41.060Z,7.07
2018-09-23T01:20:08.601Z,5.33
2018-09-23T01:22:36.148Z,3.77
2018-09-23T01:25:03.980Z,4.67
2018-09-23T01:27:31.573Z,4.03
2018-09-23T01:29:59.732Z,4.10
2018-09-23T01:32:27.240Z,8.83
2018-09-23T01:34:55.004Z,5.83
2018-09-23T01:37:22.512Z,4.67
2018-09-23T01:39:50.024Z,4.00
2018-09-23T01:42:17.984Z,6.77
2018-09-23T01:44:45.885Z,4.60
2018-09-23T01:47:13.805Z,4.17
2018-09-23T01:49:41.821Z,5.70
2018-09-23T01:52:09.318Z,3.50
2018-09-23T01:54:36.823Z,5.67
2018-09-23T01:57:04.402Z,4.23
2018-09-23T01:59:32.952Z,2.83
2018-09-23T02:02:01.037Z,2.30
2018-09-23T02:04:29.268Z,4.47
2018-09-23T02:06:57.237Z,3.27
2018-09-23T02:09:24.757Z,3.03
2018-09-23T02:11:52.672Z,5.13
2018-09-23T02:14:20.188Z,3.33
2018-09-23T02:16:47.812Z,4.50
2018-09-23T02:19:15.364Z,4.13
2018-09-23T02:21:42.866Z,3.63
2018-09-23T02:24:10.472Z,7.93
2018-09-23T02:26:38.047Z,4.03
2018-09-23T02:29:06.598Z,2.87
2018-09-23T02:31:34.125Z,4.47
2018-09-23T02:34:01.624Z,3.63
2018-09-23T02:36:29.868Z,3.53
2018-09-23T02:38:57.408Z,5.93
2018-09-23T02:41:25.042Z,3.20
2018-09-23T02:43:53.262Z,5.73
2018-09-23T02:46:20.759Z,5.73
2018-09-23T02:48:48.956Z,3.03
2018-09-23T02:51:16.636Z,2.00
2018-09-23T02:53:44.180Z,5.53
2018-09-23T02:56:11.705Z,5.90
2018-09-23T02:58:39.218Z,3.50
2018-09-23T03:01:07.172Z,5.90
2018-09-23T03:03:35.348Z,5.83
2018-09-23T03:06:02.927Z,5.73
2018-09-23T03:08:30.823Z,4.50
2018-09-23T03:10:58.780Z,3.97
2018-09-23T03:13:26.319Z,3.40
2018-09-23T03:15:53.838Z,2.73
2018-09-23T03:18:21.532Z,4.60
2018-09-23T03:20:49.037Z,4.43
2018-09-23T03:23:16.620Z,6.27
2018-09-23T03:25:44.143Z,4.00
2018-09-23T03:28:11.644Z,7.43
2018-09-23T03:30:40.021Z,9.97
2018-09-23T03:33:07.556Z,4.03
2018-09-23T03:35:35.124Z,2.77
2018-09-23T03:38:02.759Z,4.33
2018-09-23T03:40:30.684Z,3.13
2018-09-23T03:42:59.456Z,6.67
2018-09-23T03:45:27.357Z,4.03
2018-09-23T03:47:56.269Z,3.97
2018-09-23T03:50:23.956Z,3.00
2018-09-23T03:52:51.482Z,6.83
2018-09-23T03:55:19.057Z,4.03
2018-09-23T03:59:16.139Z,4.93
2018-09-23T04:01:44.935Z,3.87
2018-09-23T04:04:12.459Z,4.47
2018-09-23T04:06:40.473Z,4.97
2018-09-23T04:09:08.831Z,4.10
2018-09-23T04:11:37.023Z,4.73
2018-09-23T04:14:04.538Z,3.60
2018-09-23T04:16:32.039Z,6.77
2018-09-23T04:18:59.583Z,3.30
2018-09-23T04:21:27.130Z,4.67
2018-09-23T04:23:54.692Z,6.70
2018-09-23T04:26:22.297Z,6.83
2018-09-23T04:28:50.208Z,5.13
2018-09-23T04:31:17.710Z,4.30
2018-09-23T04:33:45.237Z,9.60
2018-09-23T04:36:12.757Z,4.07
2018-09-23T04:38:40.272Z,5.17
2018-09-23T04:41:08.495Z,5.10
2018-09-23T04:43:36.576Z,6.20
2018-09-23T04:46:04.641Z,6.10
2018-09-23T04:48:32.447Z,8.13
2018-09-23T04:50:59.996Z,6.10
2018-09-23T04:53:27.566Z,5.10
2018-09-23T04:55:55.098Z,8.77
2018-09-23T04:58:22.640Z,8.63
2018-09-23T05:00:50.288Z,4.97
2018-09-23T05:03:18.656Z,4.80
2018-09-23T05:05:46.668Z,4.90
2018-09-23T05:08:14.469Z,4.00
2018-09-23T05:10:42.493Z,4.20
2018-09-23T05:13:10.520Z,4.70
2018-09-23T05:15:38.013Z,5.30
2018-09-23T05:18:06.602Z,3.70
2018-09-23T05:20:34.208Z,4.53
2018-09-23T05:23:01.773Z,4.23
2018-09-23T05:25:29.370Z,5.60
2018-09-23T05:27:57.360Z,7.90
2018-09-23T05:30:25.476Z,7.13
2018-09-23T05:32:52.989Z,5.57
2018-09-23T05:35:20.519Z,3.50
2018-09-23T05:37:48.056Z,5.10
2018-09-23T05:40:16.293Z,3.57
2018-09-23T05:42:44.197Z,3.00
2018-09-23T05:45:11.712Z,3.37
2018-09-23T05:47:40.417Z,4.27
2018-09-23T05:50:07.973Z,3.90
2018-09-23T05:52:35.509Z,3.10
2018-09-23T05:55:03.080Z,3.40
2018-09-23T05:57:30.602Z,3.20
2018-09-23T05:59:59.080Z,4.43
2018-09-23T06:02:27.512Z,3.10
2018-09-23T06:04:55.120Z,2.47
2018-09-23T06:07:23.029Z,3.60
2018-09-23T06:09:50.580Z,3.70
2018-09-23T06:12:18.600Z,5.27
2018-09-23T06:14:46.432Z,4.27
2018-09-23T06:17:14.224Z,3.33
2018-09-23T06:19:41.740Z,13.13
2018-09-23T06:22:09.254Z,33.20
2018-09-23T06:24:36.776Z,31.80
2018-09-23T06:27:04.485Z,15.03
2018-09-23T06:29:32.623Z,6.20
2018-09-23T06:32:00.174Z,7.10
2018-09-23T06:34:27.702Z,4.50
2018-09-23T06:36:55.259Z,5.50
2018-09-23T06:39:23.227Z,5.37
2018-09-23T06:41:50.743Z,3.77
2018-09-23T06:44:19.078Z,4.43
2018-09-23T06:46:46.628Z,2.47
2018-09-23T06:49:14.718Z,5.33
2018-09-23T06:51:42.252Z,2.33
2018-09-23T06:54:09.794Z,1.60
2018-09-23T06:56:37.355Z,2.70
2018-09-23T06:59:05.130Z,1.70
2018-09-23T07:01:33.101Z,2.70
2018-09-23T07:04:01.099Z,1.77
2018-09-23T07:06:29.367Z,1.60
2018-09-23T07:08:58.253Z,1.60
2018-09-23T07:11:26.030Z,1.60
2018-09-23T07:13:53.568Z,1.70
2018-09-23T07:16:21.078Z,2.60
2018-09-23T07:18:48.675Z,1.33
2018-09-23T07:21:16.172Z,1.50
2018-09-23T07:23:44.511Z,2.00
2018-09-23T07:26:12.051Z,1.23
2018-09-23T07:28:39.904Z,2.13
2018-09-23T07:31:07.506Z,2.00
2018-09-23T07:33:35.020Z,2.40
2018-09-23T07:37:06.699Z,1.30
2018-09-23T07:39:34.263Z,2.13
2018-09-23T07:42:01.744Z,1.50
2018-09-23T07:44:29.397Z,1.40
2018-09-23T07:46:58.142Z,1.30
2018-09-23T07:49:25.687Z,3.00
2018-09-23T07:51:53.309Z,1.70
2018-09-23T07:54:21.109Z,1.50
2018-09-23T07:56:49.231Z,1.30
2018-09-23T07:59:17.882Z,2.03
2018-09-23T08:01:46.281Z,1.00
2018-09-23T08:04:13.801Z,1.13
2018-09-23T08:06:42.047Z,1.23
2018-09-23T08:09:10.275Z,1.00
2018-09-23T08:11:38.873Z,1.10
2018-09-23T08:14:07.539Z,1.83
2018-09-23T08:16:34.789Z,1.00
2018-09-23T08:19:02.965Z,1.10
2018-09-23T08:21:30.778Z,2.83
2018-09-23T08:23:58.702Z,1.20
2018-09-23T08:26:27.602Z,1.13
2018-09-23T08:28:55.541Z,0.93
2018-09-23T08:31:23.074Z,1.20
2018-09-23T08:33:51.555Z,1.10
2018-09-23T08:36:19.094Z,1.47
2018-09-23T08:38:47.266Z,2.40
2018-09-23T08:41:14.907Z,2.80
2018-09-23T08:43:42.427Z,2.07
2018-09-23T08:46:10.095Z,1.13
2018-09-23T08:48:38.220Z,2.10
2018-09-23T08:51:05.773Z,1.10
2018-09-23T08:53:34.007Z,1.00
2018-09-23T08:56:01.859Z,1.60
2018-09-23T08:58:29.389Z,1.20
2018-09-23T09:00:57.035Z,1.10
2018-09-23T09:03:25.723Z,2.60
2018-09-23T09:05:54.235Z,2.03
2018-09-23T09:08:22.111Z,3.10
2018-09-23T09:10:50.775Z,3.80
2018-09-23T09:13:18.368Z,2.60
2018-09-23T09:15:45.891Z,1.50
2018-09-23T09:18:13.510Z,1.37
2018-09-23T09:20:41.046Z,2.53
2018-09-23T09:23:09.298Z,1.27
2018-09-23T09:25:37.469Z,1.10
2018-09-23T09:28:05.337Z,1.17
2018-09-23T09:30:34.258Z,2.13
2018-09-23T09:33:01.830Z,1.70
2018-09-23T09:35:29.704Z,2.07
2018-09-23T09:37:57.220Z,1.97
2018-09-23T09:40:24.768Z,1.80
2018-09-23T09:42:52.328Z,1.73
2018-09-23T09:45:20.003Z,2.10
2018-09-23T09:47:48.482Z,2.03
2018-09-23T09:50:16.515Z,1.00
2018-09-23T09:52:44.567Z,1.03
2018-09-23T09:55:12.122Z,3.27
2018-09-23T09:57:39.816Z,1.30
2018-09-23T10:00:07.679Z,4.00
2018-09-23T10:02:35.813Z,1.23
2018-09-23T10:05:03.936Z,2.47
2018-09-23T10:14:19.306Z,7.00
2018-09-23T10:16:46.861Z,1.40
2018-09-23T10:19:14.583Z,1.33
2018-09-23T10:21:42.536Z,3.90
2018-09-23T10:24:10.721Z,2.63
2018-09-23T10:26:38.567Z,3.13
2018-09-23T10:29:06.463Z,1.93
2018-09-23T10:31:34.040Z,2.20
2018-09-23T10:34:01.686Z,1.30
2018-09-23T10:36:29.775Z,1.30
2018-09-23T10:38:57.293Z,4.70
2018-09-23T10:41:24.865Z,1.30
2018-09-23T10:43:52.416Z,1.87
2018-09-23T10:46:20.451Z,1.87
2018-09-23T10:48:49.072Z,1.13
2018-09-23T10:51:17.429Z,4.30
2018-09-23T10:53:44.995Z,3.73
2018-09-23T10:56:12.501Z,2.00
2018-09-23T10:58:40.221Z,1.50
2018-09-23T11:01:08.136Z,1.57
2018-09-23T11:03:36.615Z,2.93
2018-09-23T11:06:04.134Z,1.37
2018-09-23T11:08:31.989Z,3.00
2018-09-23T11:11:00.933Z,2.00
2018-09-23T11:13:28.534Z,1.30
2018-09-23T11:15:56.098Z,1.20
2018-09-23T11:18:23.665Z,1.77
2018-09-23T11:20:52.814Z,1.30
2018-09-23T11:23:20.976Z,1.63
2018-09-23T11:25:48.904Z,2.17
2018-09-23T11:28:18.306Z,1.43
2018-09-23T11:30:45.948Z,1.10
2018-09-23T11:33:13.516Z,1.07
2018-09-23T11:35:41.439Z,2.10
2018-09-23T11:38:08.973Z,1.10
2018-09-23T11:40:37.184Z,1.10
2018-09-23T11:43:04.742Z,1.30
2018-09-23T11:45:32.718Z,1.30
2018-09-23T11:48:00.866Z,2.30
2018-09-23T11:50:28.594Z,1.10
2018-09-23T11:52:56.168Z,1.00
2018-09-23T11:55:23.797Z,1.67
2018-09-23T11:57:52.040Z,2.40
2018-09-23T12:00:20.191Z,1.30
2018-09-23T12:02:47.748Z,1.20
2018-09-23T12:05:15.693Z,1.57
2018-09-23T12:07:43.680Z,1.37
2018-09-23T12:10:11.220Z,1.57
2018-09-23T12:12:39.046Z,1.20
2018-09-23T12:15:06.994Z,1.00
2018-09-23T12:17:34.509Z,1.10
2018-09-23T12:20:02.078Z,1.10
2018-09-23T12:22:30.150Z,1.70
2018-09-23T12:24:58.042Z,3.20
2018-09-23T12:27:25.525Z,3.40
2018-09-23T12:29:53.477Z,1.27
2018-09-23T12:32:21.000Z,1.90
2018-09-23T12:34:48.678Z,1.53
2018-09-23T12:37:17.106Z,1.20
2018-09-23T12:39:45.162Z,1.27
2018-09-23T12:42:13.946Z,1.77
2018-09-23T12:44:41.856Z,1.77
2018-09-23T12:47:09.744Z,1.20
2018-09-23T12:49:37.815Z,4.10
2018-09-23T12:52:05.845Z,1.20
2018-09-23T12:54:33.375Z,1.87
2018-09-23T12:57:01.623Z,1.20
2018-09-23T12:59:29.226Z,1.20
2018-09-23T13:01:56.760Z,1.50
2018-09-23T13:04:25.098Z,1.20
2018-09-23T13:06:53.245Z,3.10
2018-09-23T13:09:20.869Z,1.00
2018-09-23T13:11:48.780Z,1.20
2018-09-23T13:14:16.371Z,1.10
2018-09-23T13:16:43.893Z,1.20
2018-09-23T13:19:11.711Z,1.30
2018-09-23T13:21:40.034Z,1.10
2018-09-23T13:24:08.269Z,1.10
2018-09-23T13:26:36.518Z,1.10
2018-09-23T13:29:04.905Z,1.13
2018-09-23T13:31:32.432Z,1.77
2018-09-23T13:33:59.975Z,2.90
2018-09-23T13:36:27.839Z,3.73
2018-09-23T13:38:55.857Z,1.10
2018-09-23T13:41:23.779Z,1.20
2018-09-23T13:43:51.970Z,1.20
2018-09-23T13:46:20.095Z,1.10
2018-09-23T13:48:47.986Z,2.97
2018-09-23T13:51:15.536Z,1.17
2018-09-23T13:53:43.109Z,1.17
2018-09-23T13:56:10.962Z,5.73
2018-09-23T13:58:38.509Z,6.27
2018-09-23T14:01:06.114Z,2.23
2018-09-23T14:03:35.437Z,1.17
2018-09-23T14:06:04.009Z,1.10
2018-09-23T14:08:31.913Z,1.07
2018-09-23T14:11:00.638Z,1.20
2018-09-23T14:13:28.605Z,2.90
2018-09-23T14:15:56.256Z,1.30
2018-09-23T14:18:23.813Z,2.17
2018-09-23T14:20:51.844Z,1.00
2018-09-23T14:23:19.390Z,1.90
2018-09-23T14:25:46.952Z,1.07
2018-09-23T14:28:14.876Z,1.17
2018-09-23T14:30:42.424Z,1.33
2018-09-23T14:33:09.983Z,1.57
2018-09-23T14:35:38.046Z,1.10
2018-09-23T14:38:06.200Z,1.13
2018-09-23T14:40:34.063Z,1.10
2018-09-23T14:43:01.877Z,1.27
2018-09-23T14:45:29.383Z,1.43
2018-09-23T14:47:57.469Z,1.00
2018-09-23T14:50:24.979Z,1.10
2018-09-23T14:52:52.821Z,1.10
2018-09-23T14:55:20.342Z,1.10
2018-09-23T14:57:47.946Z,1.00
2018-09-23T15:00:15.716Z,0.90
2018-09-23T15:02:43.299Z,2.33
2018-09-23T15:05:11.944Z,1.50
2018-09-23T15:07:39.791Z,1.00
2018-09-23T15:10:07.349Z,0.90
2018-09-23T15:12:35.407Z,1.10
2018-09-23T15:15:03.036Z,1.10
2018-09-23T15:17:31.700Z,1.37
2018-09-23T15:19:59.300Z,1.47
2018-09-23T15:22:26.814Z,0.90
2018-09-23T15:24:54.356Z,1.10
2018-09-23T15:27:21.901Z,1.00
2018-09-23T15:29:50.149Z,1.10
2018-09-23T15:32:18.152Z,1.70
2018-09-23T15:34:46.248Z,1.60
2018-09-23T15:37:14.396Z,1.20
2018-09-23T15:39:42.440Z,1.17
2018-09-23T15:42:10.967Z,1.00
2018-09-23T15:44:38.508Z,2.63
2018-09-23T15:47:06.417Z,1.20
2018-09-23T15:49:34.087Z,1.20
2018-09-23T15:52:01.678Z,5.10
2018-09-23T15:54:29.319Z,1.20
2018-09-23T15:56:57.348Z,2.03
2018-09-23T15:59:25.521Z,3.50
2018-09-23T16:01:53.080Z,3.47
2018-09-23T16:04:21.334Z,2.33
2018-09-23T16:06:50.740Z,1.53
2018-09-23T16:09:18.260Z,2.13
2018-09-23T16:11:46.404Z,1.70
2018-09-23T16:14:14.300Z,1.70
2018-09-23T16:16:42.086Z,2.40
2018-09-23T16:19:09.672Z,1.30
2018-09-23T16:21:37.188Z,1.70
2018-09-23T16:24:05.052Z,3.37
2018-09-23T16:26:32.853Z,3.17
2018-09-23T16:29:01.306Z,1.20
2018-09-23T16:31:29.391Z,4.93
2018-09-23T16:33:57.377Z,2.80
2018-09-23T16:36:25.732Z,1.10
2018-09-23T16:38:53.335Z,1.60
2018-09-23T16:41:20.895Z,2.10
2018-09-23T16:43:49.751Z,1.23
2018-09-23T16:46:17.348Z,2.37
2018-09-23T16:48:45.779Z,1.20
2018-09-23T16:51:13.308Z,1.50
2018-09-23T16:53:41.417Z,1.50
2018-09-23T16:56:09.044Z,2.47
2018-09-23T16:58:36.592Z,2.43
2018-09-23T17:01:04.353Z,2.23
2018-09-23T17:03:33.012Z,1.40
2018-09-23T17:06:01.461Z,3.43
2018-09-23T17:08:29.490Z,3.90
2018-09-23T17:10:57.788Z,1.67
2018-09-23T17:13:25.753Z,2.30
2018-09-23T17:15:53.312Z,1.50
2018-09-23T17:18:20.824Z,1.50
2018-09-23T17:20:48.383Z,1.67
2018-09-23T17:23:15.895Z,1.30
2018-09-23T17:25:44.084Z,2.30
2018-09-23T17:28:13.512Z,1.20
2018-09-23T17:30:40.993Z,2.00
2018-09-23T17:33:09.067Z,3.33
2018-09-23T17:35:37.657Z,2.13
2018-09-23T17:38:05.816Z,2.30
2018-09-23T17:40:33.754Z,2.53
2018-09-23T17:43:02.565Z,2.70
2018-09-23T17:45:30.095Z,4.47
2018-09-23T17:47:59.242Z,1.37
2018-09-23T17:50:26.775Z,1.80
2018-09-23T17:52:54.566Z,1.97
2018-09-23T17:55:22.206Z,2.90
2018-09-23T17:57:50.392Z,3.83
2018-09-23T18:00:18.129Z,1.50
2018-09-23T18:02:45.681Z,1.30
2018-09-23T18:05:13.589Z,3.00
2018-09-23T18:07:41.506Z,2.27
2018-09-23T18:10:09.548Z,11.23
2018-09-23T18:12:37.381Z,7.40
2018-09-23T18:15:05.379Z,2.30
2018-09-23T18:17:33.023Z,2.87
2018-09-23T18:20:01.300Z,4.10
2018-09-23T18:22:28.896Z,1.47
2018-09-23T18:24:57.727Z,1.70
2018-09-23T18:27:25.796Z,1.60
2018-09-23T18:29:53.901Z,2.20
2018-09-23T18:32:21.742Z,1.63
2018-09-23T18:34:49.308Z,2.33
2018-09-23T18:37:17.283Z,5.93
2018-09-23T18:39:44.711Z,1.97
2018-09-23T18:42:12.605Z,9.07
2018-09-23T18:44:40.971Z,2.00
2018-09-23T18:47:09.104Z,1.97
2018-09-23T18:49:36.632Z,2.53
2018-09-23T18:52:04.188Z,2.40
2018-09-23T18:54:37.525Z,3.23
2018-09-23T18:57:05.241Z,4.70
2018-09-23T18:59:32.831Z,1.60
2018-09-23T19:02:00.391Z,1.37
2018-09-23T19:04:28.581Z,1.50
2018-09-23T19:06:56.580Z,4.00
2018-09-23T19:09:24.109Z,1.80
2018-09-23T19:11:51.992Z,2.03
2018-09-23T19:14:19.501Z,2.47
2018-09-23T19:16:47.045Z,2.17
2018-09-23T19:19:14.615Z,4.20
2018-09-23T19:21:42.264Z,6.43
2018-09-23T19:24:10.412Z,3.50
2018-09-23T19:26:38.324Z,4.53
2018-09-23T19:29:07.437Z,2.30
2018-09-23T19:31:35.034Z,2.73
2018-09-23T19:34:02.662Z,1.60
2018-09-23T19:36:30.911Z,7.07
2018-09-23T19:38:58.429Z,1.60
2018-09-23T19:41:27.268Z,1.70
2018-09-23T19:43:55.343Z,1.90
2018-09-23T19:46:22.896Z,3.27
2018-09-23T19:48:50.752Z,2.43
2018-09-23T19:51:18.300Z,3.10
2018-09-23T19:53:45.828Z,2.30
2018-09-23T19:56:13.338Z,2.50
2018-09-23T19:58:40.960Z,1.80
2018-09-23T20:01:08.710Z,3.43
2018-09-23T20:03:36.951Z,2.80
2018-09-23T20:06:05.374Z,3.40
2018-09-23T20:08:33.336Z,1.87
2018-09-23T20:11:01.909Z,2.37
2018-09-23T20:13:29.465Z,24.07
2018-09-23T20:15:57.493Z,10.93
2018-09-23T20:18:25.615Z,6.67
2018-09-23T20:20:55.805Z,4.03
2018-09-23T20:23:23.718Z,7.03
2018-09-23T20:25:52.106Z,1.43
2018-09-23T20:28:20.554Z,1.40
2018-09-23T20:30:48.400Z,2.17
2018-09-23T20:33:16.111Z,1.80
2018-09-23T20:35:44.104Z,5.47
2018-09-23T20:38:11.856Z,4.17
2018-09-23T20:40:39.370Z,1.47
2018-09-23T20:43:07.758Z,2.10
2018-09-23T20:45:36.088Z,2.80
2018-09-23T20:48:04.370Z,2.80
2018-09-23T20:50:32.006Z,2.23
2018-09-23T20:53:00.000Z,2.67
2018-09-23T20:55:27.685Z,5.03
2018-09-23T20:57:58.173Z,2.07
2018-09-23T21:00:25.825Z,2.80
2018-09-23T21:02:53.880Z,1.77
2018-09-23T21:05:22.144Z,2.83
2018-09-23T21:07:50.917Z,1.93
2018-09-23T21:10:19.460Z,1.37
2018-09-23T21:12:48.042Z,2.50
2018-09-23T21:15:15.846Z,2.40
2018-09-23T21:17:44.917Z,2.90
2018-09-23T21:20:12.804Z,6.40
2018-09-23T21:22:41.901Z,1.80
2018-09-23T21:25:10.069Z,2.80
2018-09-23T21:27:37.665Z,2.00
2018-09-23T21:30:07.449Z,1.40
2018-09-23T21:32:35.074Z,1.47
2018-09-23T21:35:04.073Z,2.80
2018-09-23T21:37:32.926Z,2.47
2018-09-23T21:40:00.524Z,1.10
2018-09-23T21:42:29.910Z,0.90
2018-09-23T21:44:58.844Z,1.77
2018-09-23T21:47:27.773Z,1.83
2018-09-23T21:49:56.829Z,1.63
2018-09-23T21:52:24.364Z,4.00
2018-09-23T21:54:52.250Z,1.30
2018-09-23T21:57:20.432Z,0.90
2018-09-23T21:59:48.608Z,1.10
2018-09-23T22:02:16.632Z,1.20
2018-09-23T22:04:44.838Z,3.03
2018-09-23T22:07:13.577Z,1.10
2018-09-23T22:09:41.154Z,1.10
2018-09-23T22:12:09.169Z,0.90
2018-09-23T22:14:36.966Z,1.10
2018-09-23T22:17:04.597Z,1.27
2018-09-23T22:19:32.898Z,2.13
2018-09-23T22:22:01.070Z,4.07
2018-09-23T22:24:29.626Z,2.10
2018-09-23T22:26:57.343Z,1.97
2018-09-23T22:29:25.357Z,0.90
2018-09-23T22:31:53.603Z,1.03
2018-09-23T22:34:21.189Z,2.60
2018-09-23T22:36:49.060Z,1.63
2018-09-23T22:39:16.689Z,0.90
2018-09-23T22:41:44.229Z,0.90
2018-09-23T22:44:12.643Z,2.50
2018-09-23T22:46:40.217Z,1.57
2018-09-23T22:49:08.645Z,1.20
2018-09-23T22:51:36.156Z,1.10
2018-09-23T22:54:04.093Z,0.90
2018-09-23T22:56:31.607Z,2.50
2018-09-23T22:58:59.512Z,0.90
2018-09-23T23:01:27.047Z,0.90
2018-09-23T23:03:55.884Z,0.90
2018-09-23T23:06:25.048Z,0.90
2018-09-23T23:08:54.322Z,0.90
2018-09-23T23:11:22.338Z,0.90
2018-09-23T23:13:50.325Z,2.07
2018-09-23T23:16:18.893Z,0.90
2018-09-23T23:18:48.287Z,0.90
2018-09-23T23:21:17.205Z,2.33
2018-09-23T23:23:45.396Z,0.90
2018-09-23T23:26:13.352Z,1.00
2018-09-23T23:28:41.543Z,1.00
2018-09-23T23:31:09.076Z,10.33
2018-09-23T23:33:36.577Z,1.57
2018-09-23T23:36:04.546Z,1.93
2018-09-23T23:38:32.053Z,1.03
2018-09-23T23:41:00.258Z,2.90
2018-09-23T23:43:27.860Z,1.23
2018-09-23T23:45:55.456Z,1.00
2018-09-23T23:48:24.525Z,1.27
2018-09-23T23:50:52.734Z,1.13
2018-09-23T23:53:20.276Z,2.23
2018-09-23T23:55:48.492Z,1.23
2018-09-23T23:58:16.097Z,0.90
